Overview Statistics Trail Chart Weather Telemetry Raw packets
 

This is the latest recevied weather packets stored in our database for station/object DW2488. If no packets are shown the sender has not sent any weather packets the latest 10 day(s).

<< 1 2 3 4 5 6 7 >>
Time Temp. Humidity Pressure Rain* Wind** Luminosity Snow
1788513973 17.22° C 59% 1018.4 hPa 0 mm - 0 W/m² -
1788513072 17.22° C 58% 1018.1 hPa 0 mm - 0 W/m² -
1788512181 17.22° C 57% 1017.9 hPa 0 mm - 0 W/m² -
1788511272 17.78° C 56% 1017.9 hPa 0 mm - 0 W/m² -
1788510372 18.33° C 54% 1017.4 hPa 0 mm - 0 W/m² -
1788509472 19.44° C 52% 1017.2 hPa 0 mm - 0 W/m² -
1788508566 21.11° C 48% 1017.2 hPa 0 mm - 0 W/m² -
1788507661 23.33° C 43% 1016.9 hPa 0 mm - 0 W/m² -
1788506775 25.56° C 38% 1016.8 hPa 0 mm - 11 W/m² -
1788505860 27.78° C 36% 1016.9 hPa 0 mm - 18 W/m² -
1788504930 27.78° C 37% 1016.5 hPa 0 mm - 47 W/m² -
1788504014 27.22° C 35% 1016.5 hPa 0 mm - 93 W/m² -
1788503120 27.22° C 33% 1016.4 hPa 0 mm - 155 W/m² -
1788502213 27.22° C 38% 1016.6 hPa 0 mm - 220 W/m² -
1788501318 27.22° C 35% 1016.5 hPa 0 mm - 271 W/m² -
1788500413 27.78° C 35% 1016.5 hPa 0 mm - 327 W/m² -
1788499504 26.67° C 38% 1016.5 hPa 0 mm - 380 W/m² -
1788498603 26.67° C 35% 1016.6 hPa 0 mm - 424 W/m² -
1788497703 26.11° C 37% 1016.7 hPa 0 mm - 466 W/m² -
1788496799 25° C 41% 1016.9 hPa 0 mm - 506 W/m² -
1788495898 25° C 37% 1017.1 hPa 0 mm - 547 W/m² -
1788495005 24.44° C 38% 1017.1 hPa 0 mm - 584 W/m² -
1788494104 24.44° C 38% 1017.4 hPa 0 mm - 619 W/m² -
1788493197 23.89° C 39% 1017.5 hPa 0 mm - 654 W/m² -
1788492295 24.44° C 38% 1017.9 hPa 0 mm - 686 W/m² -

* Rain latest hour (hover to see other rain measurements)
** Current wind speed in m/s (hover to see current wind gust speed)